Time;durP1;ratioP1;P1;durP2;ratioP2;P2;SDS_P1;SDS_P2;PMS_P1;PMS_P2;Temp;Humidity;BMP_temperature;BMP_pressure;BME280_temperature;BME280_humidity;BME280_pressure;Samples;Min_cycle;Max_cycle;Signal;HPM_P1;HPM_P2
2022/03/10 00:01:22;;;;;;;;;38.75;34.50;;;;;4.00;69.45;101166.38;146609;599;46010;-74
2022/03/10 00:04:14;;;;;;;;;37.75;34.00;;;;;4.04;68.80;101171.88;146599;574;47917;-73
2022/03/10 00:07:06;;;;;;;;;39.50;34.50;;;;;4.08;68.46;101175.59;146610;597;46010;-73
2022/03/10 00:09:59;;;;;;;;;48.00;37.50;;;;;4.07;68.26;101184.97;146605;580;46917;-73
2022/03/10 00:12:52;;;;;;;;;43.75;34.75;;;;;4.10;68.92;101187.78;146606;733;46021;-71
2022/03/10 00:15:44;;;;;;;;;47.25;38.25;;;;;4.11;68.96;101186.09;146604;648;46016;-71
2022/03/10 00:18:36;;;;;;;;;52.00;37.00;;;;;4.16;69.15;101175.47;146607;572;46010;-71
2022/03/10 00:21:28;;;;;;;;;31.25;28.00;;;;;4.15;68.18;101178.81;146606;570;46014;-71
2022/03/10 00:24:21;;;;;;;;;34.25;29.25;;;;;4.03;67.43;101156.34;146605;569;47010;-71
2022/03/10 00:27:13;;;;;;;;;47.00;33.00;;;;;4.12;67.28;101168.28;146602;604;46016;-77
2022/03/10 00:30:05;;;;;;;;;36.75;32.50;;;;;4.11;66.97;101169.06;146604;584;46021;-74
2022/03/10 00:32:57;;;;;;;;;34.25;31.00;;;;;4.10;67.23;101180.09;146606;582;45016;-72
2022/03/10 00:35:49;;;;;;;;;45.50;34.25;;;;;4.07;66.83;101174.69;146609;581;45029;-72
2022/03/10 00:38:41;;;;;;;;;29.75;23.75;;;;;4.08;67.14;101181.63;146604;601;45016;-72
2022/03/10 00:41:33;;;;;;;;;31.75;27.50;;;;;4.11;67.25;101178.41;146605;582;46021;-71
2022/03/10 00:44:25;;;;;;;;;33.00;27.50;;;;;4.13;66.55;101177.78;146605;598;46014;-72
2022/03/10 00:47:19;;;;;;;;;33.00;29.75;;;;;4.18;67.17;101162.78;146607;670;46010;-74
2022/03/10 00:50:13;;;;;;;;;27.50;24.50;;;;;4.16;65.82;101162.63;146604;625;46017;-75
2022/03/10 00:53:05;;;;;;;;;27.00;24.75;;;;;4.21;65.14;101167.28;146606;620;46010;-75
2022/03/10 00:55:57;;;;;;;;;31.00;25.75;;;;;4.24;66.04;101173.56;146605;579;46012;-73
2022/03/10 00:58:49;;;;;;;;;25.75;22.25;;;;;4.27;65.63;101170.31;146605;581;46020;-75
2022/03/10 01:01:41;;;;;;;;;29.00;25.25;;;;;4.24;66.31;101175.22;146603;600;46012;-73
2022/03/10 01:04:33;;;;;;;;;25.50;22.50;;;;;4.24;65.81;101163.28;146607;605;46010;-74
2022/03/10 01:07:25;;;;;;;;;32.25;26.75;;;;;4.25;66.78;101153.91;146607;584;45024;-73
2022/03/10 01:10:18;;;;;;;;;19.00;19.00;;;;;4.22;65.98;101162.25;146604;644;46020;-70
2022/03/10 01:13:22;;;;;;;;;34.25;27.25;;;;;4.25;66.79;101153.91;146604;570;46029;-69
2022/03/10 01:16:13;;;;;;;;;25.50;22.50;;;;;4.23;66.93;101140.03;146607;563;46010;-72
2022/03/10 01:19:08;;;;;;;;;29.00;22.00;;;;;4.20;67.75;101144.91;146604;619;46016;-70
2022/03/10 01:22:00;;;;;;;;;29.00;25.25;;;;;4.20;68.78;101145.81;146607;628;46028;-71
2022/03/10 01:24:52;;;;;;;;;25.75;23.50;;;;;4.19;68.40;101138.91;146605;571;46014;-71
2022/03/10 01:27:45;;;;;;;;;23.25;21.50;;;;;4.18;68.62;101142.25;146602;593;46021;-71
2022/03/10 01:30:37;;;;;;;;;27.25;22.50;;;;;4.24;68.83;101141.87;146603;620;46016;-71
2022/03/10 01:33:29;;;;;;;;;17.50;14.50;;;;;4.26;68.47;101141.19;146608;586;46010;-71
2022/03/10 01:36:21;;;;;;;;;26.50;24.50;;;;;4.30;68.73;101139.75;146626;564;46014;-70
2022/03/10 01:39:12;;;;;;;;;23.50;20.50;;;;;4.38;68.35;101134.50;146622;569;45020;-71
2022/03/10 01:42:06;;;;;;;;;23.50;23.00;;;;;4.43;68.08;101137.47;146626;620;45012;-71
2022/03/10 01:44:59;;;;;;;;;23.75;21.75;;;;;4.48;66.79;101138.72;146627;595;46010;-73
2022/03/10 01:47:51;;;;;;;;;19.25;17.75;;;;;4.51;66.23;101136.41;146624;624;46012;-74
2022/03/10 01:50:43;;;;;;;;;25.00;23.25;;;;;4.55;66.97;101141.03;146628;604;45010;-74
2022/03/10 01:53:35;;;;;;;;;31.00;27.00;;;;;4.57;67.28;101128.31;146625;620;45016;-74
2022/03/10 01:56:28;;;;;;;;;23.25;18.00;;;;;4.59;66.12;101132.81;146630;569;45010;-73
2022/03/10 01:59:23;;;;;;;;;25.75;20.00;;;;;4.63;65.51;101142.53;146627;684;45012;-73
2022/03/10 02:02:15;;;;;;;;;26.50;23.00;;;;;4.69;65.20;101136.13;146629;693;45010;-74
2022/03/10 02:05:07;;;;;;;;;21.75;20.50;;;;;4.46;63.81;101093.16;146628;604;45012;-74
2022/03/10 02:11:10;;;;;;;;;24.00;23.00;;;;;4.69;66.79;101138.69;146625;630;45017;-70
2022/03/10 02:17:19;;;;;;;;;30.00;24.50;;;;;4.60;68.46;101139.72;146628;590;45020;-70
2022/03/10 02:17:22;;;;;;;;;23.75;22.00;;;;;4.45;69.75;101145.28;146626;588;46915;-70
2022/03/10 02:20:15;;;;;;;;;26.00;25.75;;;;;4.27;70.14;101154.91;146624;750;45020;-71
2022/03/10 02:23:08;;;;;;;;;29.00;23.25;;;;;4.21;69.92;101157.00;146627;578;45014;-69
2022/03/10 02:26:01;;;;;;;;;17.75;16.00;;;;;4.20;68.00;101152.63;146626;663;45021;-70
2022/03/10 02:28:53;;;;;;;;;20.00;19.50;;;;;4.22;65.74;101154.56;146626;604;45016;-70
2022/03/10 02:31:46;;;;;;;;;27.75;23.25;;;;;4.27;68.62;101160.97;146627;579;45020;-70
2022/03/10 02:34:38;;;;;;;;;26.00;20.75;;;;;4.25;69.19;101161.63;146618;651;46014;-70
2022/03/10 02:37:30;;;;;;;;;27.25;25.50;;;;;4.23;69.06;101168.28;146605;579;46020;-69
2022/03/10 02:40:23;;;;;;;;;26.50;23.25;;;;;4.21;67.93;101172.41;146603;613;46016;-70
2022/03/10 02:43:15;;;;;;;;;27.25;21.75;;;;;4.23;68.37;101174.31;146606;591;46014;-71
2022/03/10 02:46:07;;;;;;;;;23.75;21.00;;;;;4.27;67.06;101172.87;146603;570;46016;-71
2022/03/10 02:49:00;;;;;;;;;24.25;23.25;;;;;4.33;64.67;101170.81;146606;652;46021;-69
2022/03/10 02:51:52;;;;;;;;;22.00;18.75;;;;;4.37;65.55;101167.78;146605;618;46014;-72
2022/03/10 02:54:44;;;;;;;;;25.50;20.00;;;;;4.45;65.57;101171.84;146605;591;46020;-73
2022/03/10 02:57:37;;;;;;;;;16.75;14.25;;;;;4.55;65.75;101178.66;146604;590;46012;-72
2022/03/10 03:00:30;;;;;;;;;21.75;21.00;;;;;4.61;66.08;101187.78;146607;790;46014;-73
2022/03/10 03:03:22;;;;;;;;;20.25;18.50;;;;;4.68;64.70;101190.84;146605;583;46012;-78
2022/03/10 03:06:14;;;;;;;;;18.25;17.75;;;;;4.69;64.25;101196.09;146605;582;46020;-77
2022/03/10 03:09:07;;;;;;;;;16.75;15.00;;;;;4.71;61.85;101184.28;146604;604;46013;-74
2022/03/10 03:11:59;;;;;;;;;20.00;18.75;;;;;4.75;63.28;101175.16;146609;602;45023;-75
2022/03/10 03:14:51;;;;;;;;;29.75;20.00;;;;;4.84;62.73;101197.34;146603;594;46016;-72
2022/03/10 03:17:43;;;;;;;;;20.75;17.75;;;;;4.87;62.17;101189.87;146608;580;46011;-73
2022/03/10 03:20:35;;;;;;;;;26.25;21.25;;;;;4.89;63.23;101190.03;146604;569;46027;-74
2022/03/10 03:23:27;;;;;;;;;21.00;19.25;;;;;4.90;62.64;101204.66;146606;614;46010;-71
2022/03/10 03:26:20;;;;;;;;;23.50;20.00;;;;;4.89;63.25;101209.66;146604;587;46017;-71
2022/03/10 03:29:12;;;;;;;;;28.25;24.50;;;;;4.89;62.58;101210.59;146607;571;46020;-72
2022/03/10 03:32:04;;;;;;;;;24.00;19.75;;;;;4.86;61.62;101210.34;146603;583;46013;-71
2022/03/10 03:34:56;;;;;;;;;22.75;20.75;;;;;4.83;61.65;101205.84;146603;635;46020;-71
2022/03/10 03:37:48;;;;;;;;;29.00;19.75;;;;;4.83;62.43;101215.22;146607;634;46012;-72
2022/03/10 03:40:40;;;;;;;;;23.25;19.75;;;;;4.86;62.84;101215.47;146608;619;46010;-72
2022/03/10 03:43:32;;;;;;;;;20.25;18.25;;;;;4.85;62.15;101219.69;146603;613;46878;-71
2022/03/10 03:46:24;;;;;;;;;27.00;22.25;;;;;4.86;62.51;101223.19;146606;654;46011;-72
2022/03/10 03:49:16;;;;;;;;;26.00;23.50;;;;;4.83;62.27;101218.69;146603;598;46016;-71
2022/03/10 03:52:09;;;;;;;;;25.75;25.75;;;;;4.82;62.75;101223.69;146605;569;46020;-72
2022/03/10 03:55:01;;;;;;;;;25.00;21.25;;;;;4.80;61.91;101217.53;146603;621;46022;-70
2022/03/10 03:57:53;;;;;;;;;28.75;23.50;;;;;4.81;62.10;101229.59;146604;581;46020;-70
2022/03/10 04:00:45;;;;;;;;;25.00;20.00;;;;;4.82;62.68;101226.25;146606;622;46015;-71
2022/03/10 04:03:38;;;;;;;;;20.25;18.00;;;;;4.84;63.68;101217.91;146605;564;46021;-72
2022/03/10 04:06:30;;;;;;;;;22.25;21.25;;;;;4.85;64.27;101218.78;146603;593;46016;-72
2022/03/10 04:09:22;;;;;;;;;31.50;24.50;;;;;4.81;64.24;101219.31;146607;612;46010;-72
2022/03/10 04:12:14;;;;;;;;;29.00;23.50;;;;;4.76;65.22;101220.59;146603;718;46016;-72
2022/03/10 04:15:08;;;;;;;;;28.00;24.25;;;;;4.74;65.52;101225.62;146602;628;46020;-70
2022/03/10 04:18:00;;;;;;;;;22.25;19.75;;;;;4.71;65.99;101225.38;146603;587;46016;-69
2022/03/10 04:20:52;;;;;;;;;24.00;18.50;;;;;4.72;66.17;101223.72;146605;587;46020;-69
2022/03/10 04:23:45;;;;;;;;;27.00;21.00;;;;;4.74;65.92;101228.22;146604;632;46012;-71
2022/03/10 04:26:38;;;;;;;;;26.50;23.00;;;;;4.74;65.86;101230.78;146605;571;46020;-71
2022/03/10 04:29:31;;;;;;;;;21.75;20.75;;;;;4.64;66.24;101233.34;146605;637;46012;-70
2022/03/10 04:32:22;;;;;;;;;32.75;25.75;;;;;4.56;67.12;101242.09;146608;633;46010;-69
2022/03/10 04:35:18;;;;;;;;;35.25;27.00;;;;;4.48;66.66;101245.69;146606;576;46012;-72
2022/03/10 04:38:10;;;;;;;;;28.00;23.50;;;;;4.43;67.44;101241.84;146608;587;46015;-70
2022/03/10 04:41:03;;;;;;;;;32.75;27.50;;;;;4.42;68.10;101250.28;146604;690;46016;-70
2022/03/10 04:43:55;;;;;;;;;31.25;26.00;;;;;4.40;67.41;101250.19;146605;649;46020;-71
2022/03/10 04:46:47;;;;;;;;;30.75;28.25;;;;;4.40;68.59;101263.91;146603;564;46017;-72
2022/03/10 04:49:39;;;;;;;;;30.00;24.75;;;;;4.39;68.87;101268.91;146604;649;46020;-71
2022/03/10 04:52:32;;;;;;;;;32.75;28.25;;;;;4.38;68.14;101272.25;146604;575;46012;-72
2022/03/10 04:55:24;;;;;;;;;30.25;27.75;;;;;4.39;69.29;101271.47;146608;566;46010;-73
2022/03/10 04:58:17;;;;;;;;;30.50;28.00;;;;;4.38;68.17;101277.37;146604;579;46012;-72
2022/03/10 05:01:09;;;;;;;;;30.75;26.50;;;;;4.39;67.26;101279.19;146606;687;46021;-73
2022/03/10 05:04:01;;;;;;;;;33.75;28.50;;;;;4.39;67.29;101286.88;146604;579;46012;-74
2022/03/10 05:06:54;;;;;;;;;32.25;30.00;;;;;4.36;67.96;101284.06;146605;592;46020;-71
2022/03/10 05:09:46;;;;;;;;;31.75;30.00;;;;;4.28;68.04;101296.25;146603;612;46017;-71
2022/03/10 05:12:38;;;;;;;;;27.50;22.75;;;;;4.24;68.12;101298.44;146605;573;46020;-71
2022/03/10 05:15:33;;;;;;;;;27.25;24.00;;;;;4.21;69.12;101300.75;146604;594;46017;-71
2022/03/10 05:18:25;;;;;;;;;30.00;25.25;;;;;4.19;68.92;101303.16;146606;581;46010;-72
2022/03/10 05:21:17;;;;;;;;;31.25;27.25;;;;;4.17;68.91;101309.81;146606;607;46014;-71
2022/03/10 05:24:10;;;;;;;;;37.50;32.00;;;;;4.13;68.72;101305.19;146606;574;46010;-71
2022/03/10 05:27:01;;;;;;;;;30.00;27.50;;;;;4.09;69.67;101303.16;146606;569;46012;-73
2022/03/10 05:29:53;;;;;;;;;35.00;28.00;;;;;4.03;69.35;101311.22;146604;589;46020;-73
2022/03/10 05:32:45;;;;;;;;;30.75;25.50;;;;;4.00;69.50;101310.94;146603;572;46014;-74
2022/03/10 05:35:37;;;;;;;;;34.50;29.75;;;;;3.98;69.35;101312.47;146605;570;46020;-74
2022/03/10 05:38:30;;;;;;;;;37.00;30.25;;;;;3.99;68.92;101315.94;146604;571;46013;-73
2022/03/10 05:41:22;;;;;;;;;37.25;32.25;;;;;3.97;70.12;101326.06;146606;564;46010;-71
2022/03/10 05:44:14;;;;;;;;;30.75;26.00;;;;;3.91;70.58;101329.00;146602;614;46024;-73
2022/03/10 05:47:06;;;;;;;;;34.25;30.00;;;;;3.85;72.54;101318.22;146605;740;46010;-71
2022/03/10 05:49:58;;;;;;;;;38.00;32.00;;;;;3.86;73.41;101324.22;146601;642;47916;-71
2022/03/10 05:52:50;;;;;;;;;34.50;30.75;;;;;3.87;72.80;101323.50;146605;591;46011;-71
2022/03/10 05:55:43;;;;;;;;;31.75;30.00;;;;;3.86;73.90;101330.28;146604;602;46016;-72
2022/03/10 05:58:34;;;;;;;;;29.00;26.75;;;;;3.88;73.63;101335.53;146605;570;46020;-72
2022/03/10 06:01:27;;;;;;;;;33.00;29.75;;;;;3.91;72.89;101331.56;146604;583;46017;-73
2022/03/10 06:04:19;;;;;;;;;28.00;26.25;;;;;3.88;73.34;101343.25;146606;589;46010;-73
2022/03/10 06:07:11;;;;;;;;;25.75;23.25;;;;;3.90;73.25;101332.34;146604;596;46017;-74
2022/03/10 06:10:03;;;;;;;;;26.50;20.75;;;;;3.97;73.06;101346.59;146606;614;46020;-73
2022/03/10 06:12:56;;;;;;;;;39.25;27.00;;;;;3.98;72.89;101339.81;146607;609;46012;-72
2022/03/10 06:15:48;;;;;;;;;31.25;26.50;;;;;4.03;71.96;101352.28;146604;566;46021;-72
2022/03/10 06:18:40;;;;;;;;;29.25;26.25;;;;;4.12;72.02;101352.19;146602;708;46016;-71
2022/03/10 06:21:34;;;;;;;;;31.25;27.00;;;;;4.17;72.07;101348.31;146607;692;46011;-73
2022/03/10 06:24:26;;;;;;;;;33.75;29.75;;;;;4.26;72.07;101341.41;146604;574;46016;-75
2022/03/10 06:27:18;;;;;;;;;33.00;31.00;;;;;4.33;71.69;101338.63;146606;595;46020;-74
2022/03/10 06:30:11;;;;;;;;;38.00;34.75;;;;;4.38;71.08;101347.59;146603;564;46016;-74
2022/03/10 06:33:03;;;;;;;;;31.75;28.25;;;;;4.43;70.94;101357.41;146605;602;46020;-72
2022/03/10 06:35:55;;;;;;;;;37.00;33.75;;;;;4.45;70.55;101359.28;146605;603;46012;-70
2022/03/10 06:38:47;;;;;;;;;38.75;30.00;;;;;4.46;71.02;101362.78;146606;618;46021;-71
2022/03/10 06:41:40;;;;;;;;;30.00;28.50;;;;;4.46;70.77;101368.81;146605;615;46014;-70
2022/03/10 06:44:32;;;;;;;;;43.50;33.00;;;;;4.43;70.50;101362.53;146606;598;45021;-69
2022/03/10 06:47:24;;;;;;;;;33.75;30.00;;;;;4.43;70.37;101365.09;146605;574;46012;-69
2022/03/10 06:50:16;;;;;;;;;39.25;35.00;;;;;4.39;70.24;101359.69;146607;703;46010;-69
2022/03/10 06:53:09;;;;;;;;;36.25;31.25;;;;;4.44;69.68;101359.19;146605;622;46014;-69
2022/03/10 06:56:01;;;;;;;;;37.75;30.50;;;;;4.47;69.62;101368.03;146606;681;46014;-73
2022/03/10 06:58:53;;;;;;;;;42.75;33.25;;;;;4.59;69.65;101375.91;146605;623;46015;-73
2022/03/10 07:01:45;;;;;;;;;36.00;33.00;;;;;4.71;68.69;101371.81;146603;587;46021;-74
2022/03/10 07:04:38;;;;;;;;;33.00;29.00;;;;;4.80;68.73;101371.69;146604;586;46016;-74
2022/03/10 07:07:29;;;;;;;;;41.75;35.00;;;;;4.86;67.76;101380.81;146606;654;46010;-74
2022/03/10 07:10:22;;;;;;;;;39.75;33.00;;;;;4.99;69.15;101384.41;146605;673;46012;-73
2022/03/10 07:13:14;;;;;;;;;50.50;40.75;;;;;5.17;68.08;101387.59;146605;563;46020;-73
2022/03/10 07:16:06;;;;;;;;;42.25;35.25;;;;;5.28;67.54;101384.25;146604;566;46017;-75
2022/03/10 07:18:58;;;;;;;;;43.50;33.50;;;;;5.36;67.65;101380.66;146606;749;47010;-76
2022/03/10 07:21:51;;;;;;;;;38.00;33.75;;;;;5.51;66.69;101392.22;146604;598;46016;-75
2022/03/10 07:24:43;;;;;;;;;43.00;37.25;;;;;5.72;67.60;101390.47;146605;579;47025;-79
2022/03/10 07:27:35;;;;;;;;;39.25;34.25;;;;;5.96;67.00;101383.88;146605;580;46021;-78
2022/03/10 07:30:27;;;;;;;;;38.75;32.00;;;;;6.21;66.48;101376.41;146608;615;46010;-78
2022/03/10 07:33:19;;;;;;;;;38.00;32.25;;;;;6.40;64.91;101373.59;146604;623;46012;-78
2022/03/10 07:36:12;;;;;;;;;33.00;30.00;;;;;6.45;63.90;101377.44;146606;586;45031;-78
2022/03/10 07:39:04;;;;;;;;;26.50;25.25;;;;;6.52;63.48;101385.66;146605;604;46016;-78
2022/03/10 07:41:56;;;;;;;;;34.75;30.25;;;;;6.54;63.41;101386.66;146602;563;47010;-78
2022/03/10 07:44:48;;;;;;;;;31.50;24.25;;;;;6.54;64.00;101386.66;146602;667;46918;-77
2022/03/10 07:47:40;;;;;;;;;36.25;33.00;;;;;6.59;64.03;101393.06;146606;597;46010;-78
2022/03/10 07:50:32;;;;;;;;;34.25;29.25;;;;;6.59;61.75;101380.19;146605;615;46016;-78
2022/03/10 07:53:25;;;;;;;;;38.00;29.00;;;;;6.52;62.02;101389.13;146606;610;46021;-77
2022/03/10 07:56:17;;;;;;;;;29.50;27.50;;;;;6.44;62.37;101393.66;146605;622;46012;-73
2022/03/10 07:59:09;;;;;;;;;40.50;32.00;;;;;6.32;61.77;101402.09;146605;617;46021;-73
2022/03/10 08:02:02;;;;;;;;;34.75;28.00;;;;;6.18;63.05;101406.16;146604;596;46016;-75
2022/03/10 08:04:53;;;;;;;;;40.50;33.50;;;;;6.03;64.59;101402.38;146610;619;45020;-81
2022/03/10 08:07:46;;;;;;;;;41.00;31.25;;;;;5.84;64.73;101399.97;146604;582;46012;-82
2022/03/10 08:10:37;;;;;;;;;45.25;32.75;;;;;5.63;67.21;101411.97;146607;582;45020;-80
2022/03/10 08:13:31;;;;;;;;;29.50;29.00;;;;;5.39;67.91;101432.34;146603;581;46017;-75
2022/03/10 08:16:23;;;;;;;;;34.25;29.50;;;;;5.09;68.75;101423.84;146607;647;46010;-75
2022/03/10 08:19:16;;;;;;;;;36.50;32.75;;;;;4.87;69.47;101422.81;146605;577;46016;-74
2022/03/10 08:22:09;;;;;;;;;37.00;32.50;;;;;4.63;70.15;101422.50;146606;571;46021;-70
2022/03/10 08:25:00;;;;;;;;;39.25;33.25;;;;;4.45;71.07;101425.16;146605;624;46012;-69
2022/03/10 08:27:52;;;;;;;;;33.75;28.00;;;;;4.30;71.52;101428.22;146606;612;46010;-67
2022/03/10 08:30:44;;;;;;;;;38.00;32.25;;;;;4.10;72.17;101430.69;146603;607;46017;-71
2022/03/10 08:33:37;;;;;;;;;31.00;28.50;;;;;3.96;71.73;101415.72;146607;634;46010;-68
2022/03/10 08:36:30;;;;;;;;;50.50;40.75;;;;;3.97;72.54;101423.59;146626;579;45017;-69
2022/03/10 08:39:22;;;;;;;;;56.00;45.25;;;;;4.04;73.82;101413.09;146623;577;46020;-68
2022/03/10 08:42:14;;;;;;;;;51.25;42.75;;;;;4.18;75.12;101411.75;146628;569;45013;-69
2022/03/10 08:45:07;;;;;;;;;49.25;39.25;;;;;4.25;74.80;101414.06;146627;605;45014;-68
2022/03/10 08:47:59;;;;;;;;;54.00;42.75;;;;;4.40;75.45;101410.28;146626;591;45016;-69
2022/03/10 08:50:55;;;;;;;;;51.75;40.25;;;;;4.54;74.07;101411.44;146629;564;45015;-69
2022/03/10 08:53:48;;;;;;;;;61.00;46.50;;;;;4.74;74.69;101405.47;146626;627;45012;-69
2022/03/10 08:56:39;;;;;;;;;53.50;43.00;;;;;5.07;74.33;101409.97;146627;600;44020;-69
2022/03/10 08:59:32;;;;;;;;;50.50;37.25;;;;;5.52;73.85;101399.16;146627;589;45029;-68
2022/03/10 09:02:24;;;;;;;;;45.00;36.00;;;;;6.03;71.91;101395.53;146629;657;45029;-70
2022/03/10 09:05:17;;;;;;;;;56.50;43.50;;;;;6.53;70.85;101396.06;146627;666;45013;-68
2022/03/10 09:08:09;;;;;;;;;43.25;34.00;;;;;6.91;69.92;101400.69;146627;697;45030;-68
2022/03/10 09:11:02;;;;;;;;;46.75;36.50;;;;;7.09;65.72;101404.69;146627;711;45012;-70
2022/03/10 09:13:54;;;;;;;;;41.25;37.00;;;;;7.25;67.16;101393.84;146629;582;45010;-69
2022/03/10 09:16:46;;;;;;;;;46.50;38.25;;;;;7.49;65.48;101392.19;146626;682;46918;-69
2022/03/10 09:19:39;;;;;;;;;39.75;33.50;;;;;7.75;64.73;101375.13;146627;602;45020;-68
2022/03/10 09:22:31;;;;;;;;;39.25;33.75;;;;;8.05;59.59;101377.34;146619;579;46918;-69
2022/03/10 09:25:23;;;;;;;;;45.50;35.75;;;;;8.34;59.96;101374.25;146627;584;45020;-70
2022/03/10 09:28:15;;;;;;;;;40.50;32.50;;;;;8.58;59.79;101374.22;146625;615;45012;-69
2022/03/10 09:31:10;;;;;;;;;40.75;33.75;;;;;8.81;60.33;101382.66;146629;683;45014;-69
2022/03/10 09:34:04;;;;;;;;;23.00;21.00;;;;;9.12;58.96;101377.88;146624;599;46015;-69
2022/03/10 09:36:56;;;;;;;;;28.75;23.50;;;;;9.49;59.02;101383.81;146606;565;46020;-69
2022/03/10 09:39:48;;;;;;;;;19.50;19.25;;;;;9.76;53.83;101381.25;146598;586;47016;-69
2022/03/10 09:42:40;;;;;;;;;22.00;18.25;;;;;9.74;51.72;101385.41;146604;695;46021;-69
2022/03/10 09:45:34;;;;;;;;;24.25;20.50;;;;;9.49;52.27;101395.06;146604;566;46917;-69
2022/03/10 09:48:26;;;;;;;;;26.50;22.75;;;;;9.27;52.79;101391.84;146599;599;47921;-69
2022/03/10 09:51:18;;;;;;;;;31.50;26.75;;;;;9.13;55.64;101387.44;146604;619;46017;-70
2022/03/10 09:54:11;;;;;;;;;26.75;22.50;;;;;9.15;53.94;101381.56;146606;577;46020;-69
2022/03/10 09:57:04;;;;;;;;;26.00;23.25;;;;;9.42;56.70;101387.69;146606;594;46014;-70
2022/03/10 10:00:00;;;;;;;;;26.25;22.75;;;;;9.87;54.82;101390.59;146607;588;46010;-70
2022/03/10 10:02:52;;;;;;;;;22.25;21.25;;;;;10.25;54.75;101380.09;146604;569;46016;-69
2022/03/10 10:05:45;;;;;;;;;30.50;26.00;;;;;10.57;54.04;101381.22;146606;628;45041;-69
2022/03/10 10:08:39;;;;;;;;;28.50;26.75;;;;;10.82;53.26;101389.69;146603;615;46016;-69
2022/03/10 10:11:36;;;;;;;;;28.50;26.00;;;;;10.94;51.49;101393.84;146607;667;46020;-68
2022/03/10 10:14:45;;;;;;;;;13.00;12.50;;;;;10.79;47.57;101410.25;146599;631;47917;-69
2022/03/10 10:17:37;;;;;;;;;13.50;13.50;;;;;10.30;48.06;101420.16;146605;618;46020;-69
2022/03/10 10:20:35;;;;;;;;;18.75;17.25;;;;;9.79;50.83;101412.53;146601;609;46017;-71
2022/03/10 10:23:33;;;;;;;;;18.25;17.50;;;;;9.40;52.14;101411.66;146606;569;46020;-70
2022/03/10 10:26:28;;;;;;;;;26.50;22.00;;;;;9.14;53.20;101415.09;146603;618;46016;-70
2022/03/10 10:29:31;;;;;;;;;33.75;29.75;;;;;8.87;51.83;101406.34;146604;570;46014;-70
2022/03/10 10:32:55;;;;;;;;;38.50;33.25;;;;;8.21;55.58;101357.78;146606;650;46015;-69
2022/03/10 10:35:47;;;;;;;;;23.25;19.00;;;;;8.21;54.85;101423.25;146606;607;46010;-70
2022/03/10 10:38:40;;;;;;;;;18.00;15.75;;;;;7.95;51.56;101407.59;146603;605;46016;-69
2022/03/10 10:41:33;;;;;;;;;22.75;20.75;;;;;7.72;56.87;101408.47;146607;588;46011;-71
2022/03/10 10:44:26;;;;;;;;;30.50;27.50;;;;;7.55;58.36;101435.62;146605;724;46034;-69
2022/03/10 10:47:18;;;;;;;;;36.75;32.25;;;;;7.50;58.04;101427.53;146606;595;46010;-70
2022/03/10 10:50:11;;;;;;;;;23.00;19.75;;;;;7.43;58.12;101425.28;146603;642;47012;-70
2022/03/10 10:53:04;;;;;;;;;26.00;23.00;;;;;7.46;60.39;101425.50;146605;563;46020;-69
2022/03/10 10:55:57;;;;;;;;;22.50;20.00;;;;;7.79;59.70;101411.62;146603;621;46016;-69
2022/03/10 10:58:52;;;;;;;;;24.00;19.75;;;;;8.34;60.52;101407.84;146606;597;46020;-69
2022/03/10 11:01:44;;;;;;;;;35.00;31.50;;;;;8.92;58.91;101399.81;146603;745;46016;-70
2022/03/10 11:04:36;;;;;;;;;37.00;29.75;;;;;9.36;53.94;101395.03;146603;597;46021;-69
2022/03/10 11:07:29;;;;;;;;;26.75;23.50;;;;;9.70;51.47;101390.41;146604;573;45020;-69
2022/03/10 11:10:21;;;;;;;;;18.75;15.00;;;;;9.99;49.51;101388.78;146605;569;46020;-69
2022/03/10 11:13:14;;;;;;;;;18.75;17.25;;;;;10.15;47.50;101391.53;146604;569;46016;-69
2022/03/10 11:16:07;;;;;;;;;18.75;16.75;;;;;10.14;48.57;101391.47;146604;563;46020;-69
2022/03/10 11:19:01;;;;;;;;;11.75;11.75;;;;;9.91;43.65;101383.13;146603;595;46016;-69
2022/03/10 11:22:29;;;;;;;;;20.50;18.25;;;;;9.83;48.84;101371.38;146606;569;46010;-69
2022/03/10 11:25:46;;;;;;;;;14.75;14.00;;;;;9.68;48.55;101376.44;146604;606;45017;-70
2022/03/10 11:28:39;;;;;;;;;16.00;15.75;;;;;9.73;45.96;101376.75;146605;571;46010;-69
2022/03/10 11:31:35;;;;;;;;;25.00;23.00;;;;;9.83;45.98;101386.00;146603;577;46016;-69
2022/03/10 11:34:56;;;;;;;;;23.00;19.00;;;;;9.91;49.43;101377.94;146604;577;46020;-71
2022/03/10 11:37:56;;;;;;;;;30.00;27.50;;;;;9.90;47.55;101368.34;146604;651;46016;-70
2022/03/10 11:40:56;;;;;;;;;40.25;35.50;;;;;9.88;47.14;101374.28;146608;589;46010;-69
2022/03/10 11:44:02;;;;;;;;;23.50;21.50;;;;;9.68;49.76;101347.06;146604;651;46014;-69
2022/03/10 11:47:00;;;;;;;;;15.00;13.00;;;;;9.69;45.33;101378.25;146606;627;46020;-69
2022/03/10 11:49:53;;;;;;;;;18.50;16.75;;;;;9.53;45.38;101390.06;146603;569;47012;-69
2022/03/10 11:52:44;;;;;;;;;28.75;23.75;;;;;9.45;48.31;101412.87;146606;583;46010;-69
2022/03/10 11:55:52;;;;;;;;;27.50;23.25;;;;;9.39;49.60;101407.28;146605;642;46016;-70
2022/03/10 11:58:45;;;;;;;;;19.25;13.75;;;;;9.21;43.81;101396.59;146608;666;46010;-70
2022/03/10 12:01:46;;;;;;;;;14.00;12.50;;;;;9.03;48.35;101406.59;146605;629;46015;-70
2022/03/10 12:04:43;;;;;;;;;19.00;16.50;;;;;8.85;47.50;101415.69;146605;583;46021;-70
2022/03/10 12:07:36;;;;;;;;;39.50;32.50;;;;;8.75;49.36;101411.56;146604;635;46012;-76
2022/03/10 12:10:45;;;;;;;;;23.75;23.25;;;;;8.69;50.66;101416.31;146609;575;46010;-69
2022/03/10 12:13:44;;;;;;;;;29.25;23.50;;;;;8.64;50.73;101417.69;146605;610;45016;-70
2022/03/10 12:16:42;;;;;;;;;28.50;23.25;;;;;8.64;52.18;101420.28;146603;614;46020;-70
2022/03/10 12:20:11;;;;;;;;;26.75;24.25;;;;;8.69;52.56;101417.22;146602;565;46016;-70
2022/03/10 12:23:31;;;;;;;;;60.75;47.50;;;;;8.54;53.51;101374.78;146608;603;46010;-73
2022/03/10 12:26:37;;;;;;;;;63.25;49.50;;;;;8.83;52.43;101425.03;146605;625;46012;-80
2022/03/10 12:29:31;;;;;;;;;42.00;35.00;;;;;8.84;52.33;101430.28;146608;677;46010;-68
2022/03/10 12:32:30;;;;;;;;;63.25;50.25;;;;;8.72;48.71;101424.28;146607;609;45017;-70
2022/03/10 12:35:36;;;;;;;;;50.75;40.75;;;;;8.30;49.51;101398.06;146606;573;46010;-74
2022/03/10 12:38:47;;;;;;;;;37.75;34.50;;;;;8.24;50.73;101446.72;146608;576;45016;-70
2022/03/10 12:41:50;;;;;;;;;22.50;17.00;;;;;8.07;51.22;101442.06;146607;589;46011;-71
2022/03/10 12:44:48;;;;;;;;;21.50;17.50;;;;;7.95;51.88;101443.72;146608;570;45016;-73
2022/03/10 12:47:45;;;;;;;;;25.75;23.75;;;;;7.91;50.27;101450.34;146608;572;46010;-71
2022/03/10 12:50:40;;;;;;;;;18.50;18.00;;;;;7.95;50.04;101456.66;146609;563;45032;-70
2022/03/10 12:53:35;;;;;;;;;23.75;21.75;;;;;7.97;50.64;101447.31;146607;624;46020;-70
2022/03/10 12:56:27;;;;;;;;;15.00;11.50;;;;;8.15;51.76;101446.06;146605;597;46014;-70
2022/03/10 12:59:34;;;;;;;;;17.25;15.00;;;;;8.52;50.81;101449.63;146609;615;46010;-70
2022/03/10 13:02:27;;;;;;;;;17.25;17.25;;;;;8.87;49.84;101448.62;146603;598;46017;-70
2022/03/10 13:05:27;;;;;;;;;24.00;23.00;;;;;9.20;48.24;101438.81;146605;615;46014;-70
2022/03/10 13:08:19;;;;;;;;;23.25;20.75;;;;;9.40;48.14;101441.03;146603;598;46016;-70
2022/03/10 13:11:11;;;;;;;;;17.50;15.25;;;;;9.51;47.20;101443.47;146609;613;46010;-70
2022/03/10 13:14:14;;;;;;;;;17.00;15.50;;;;;9.51;47.56;101440.87;146604;605;46016;-70
2022/03/10 13:17:06;;;;;;;;;23.50;19.50;;;;;9.55;47.70;101440.28;146607;614;46011;-71
2022/03/10 13:19:59;;;;;;;;;19.00;15.25;;;;;9.60;44.72;101433.72;146605;581;46012;-70
2022/03/10 13:22:53;;;;;;;;;16.00;15.50;;;;;9.57;46.64;101434.41;146607;689;45020;-71